sensor_id;sensor_type;location;lat;lon;timestamp;P1;durP1;ratioP1;P2;durP2;ratioP2
23745;SDS011;12053;48.878;9.632;2023-05-10T00:01:51;0.75;;;0.75;;
23745;SDS011;12053;48.878;9.632;2023-05-10T00:04:18;0.77;;;0.60;;
23745;SDS011;12053;48.878;9.632;2023-05-10T00:06:46;0.50;;;0.50;;
23745;SDS011;12053;48.878;9.632;2023-05-10T00:09:13;0.95;;;0.47;;
23745;SDS011;12053;48.878;9.632;2023-05-10T00:11:40;0.65;;;0.65;;
23745;SDS011;12053;48.878;9.632;2023-05-10T00:14:08;0.50;;;0.50;;
23745;SDS011;12053;48.878;9.632;2023-05-10T00:16:35;1.00;;;0.40;;
23745;SDS011;12053;48.878;9.632;2023-05-10T00:19:02;0.63;;;0.63;;
23745;SDS011;12053;48.878;9.632;2023-05-10T00:21:29;0.60;;;0.60;;
23745;SDS011;12053;48.878;9.632;2023-05-10T00:23:58;1.65;;;0.80;;
23745;SDS011;12053;48.878;9.632;2023-05-10T00:26:25;0.80;;;0.80;;
23745;SDS011;12053;48.878;9.632;2023-05-10T00:28:52;2.25;;;1.00;;
23745;SDS011;12053;48.878;9.632;2023-05-10T00:31:20;1.30;;;1.00;;
23745;SDS011;12053;48.878;9.632;2023-05-10T00:33:47;1.50;;;1.40;;
23745;SDS011;12053;48.878;9.632;2023-05-10T00:36:14;2.17;;;1.50;;
23745;SDS011;12053;48.878;9.632;2023-05-10T00:38:41;1.48;;;1.38;;
23745;SDS011;12053;48.878;9.632;2023-05-10T00:41:09;1.17;;;1.15;;
23745;SDS011;12053;48.878;9.632;2023-05-10T00:43:36;2.30;;;0.90;;
23745;SDS011;12053;48.878;9.632;2023-05-10T00:46:03;1.02;;;0.93;;
23745;SDS011;12053;48.878;9.632;2023-05-10T00:48:31;0.70;;;0.70;;
23745;SDS011;12053;48.878;9.632;2023-05-10T00:50:58;1.05;;;0.85;;
23745;SDS011;12053;48.878;9.632;2023-05-10T00:53:25;0.80;;;0.70;;
23745;SDS011;12053;48.878;9.632;2023-05-10T00:55:53;0.82;;;0.60;;
23745;SDS011;12053;48.878;9.632;2023-05-10T00:58:20;3.03;;;1.45;;
23745;SDS011;12053;48.878;9.632;2023-05-10T01:00:49;0.40;;;0.40;;
23745;SDS011;12053;48.878;9.632;2023-05-10T01:03:17;0.50;;;0.50;;
23745;SDS011;12053;48.878;9.632;2023-05-10T01:05:44;0.50;;;0.50;;
23745;SDS011;12053;48.878;9.632;2023-05-10T01:08:12;1.92;;;0.60;;
23745;SDS011;12053;48.878;9.632;2023-05-10T01:10:39;10.80;;;0.80;;
23745;SDS011;12053;48.878;9.632;2023-05-10T01:13:06;0.73;;;0.73;;
23745;SDS011;12053;48.878;9.632;2023-05-10T01:15:33;0.70;;;0.70;;
23745;SDS011;12053;48.878;9.632;2023-05-10T01:18:00;1.88;;;0.93;;
23745;SDS011;12053;48.878;9.632;2023-05-10T01:20:32;1.00;;;0.95;;
23745;SDS011;12053;48.878;9.632;2023-05-10T01:36:03;1.10;;;1.10;;
23745;SDS011;12053;48.878;9.632;2023-05-10T01:38:38;3.28;;;1.42;;
23745;SDS011;12053;48.878;9.632;2023-05-10T01:41:14;1.67;;;1.58;;
23745;SDS011;12053;48.878;9.632;2023-05-10T01:46:28;1.70;;;1.42;;
23745;SDS011;12053;48.878;9.632;2023-05-10T01:48:58;1.98;;;1.88;;
23745;SDS011;12053;48.878;9.632;2023-05-10T01:51:28;2.00;;;1.80;;
23745;SDS011;12053;48.878;9.632;2023-05-10T01:54:03;1.88;;;1.77;;
23745;SDS011;12053;48.878;9.632;2023-05-10T01:56:32;2.22;;;2.13;;
23745;SDS011;12053;48.878;9.632;2023-05-10T01:59:00;2.47;;;2.28;;
23745;SDS011;12053;48.878;9.632;2023-05-10T02:01:28;2.85;;;2.65;;
23745;SDS011;12053;48.878;9.632;2023-05-10T02:03:56;2.88;;;2.67;;
23745;SDS011;12053;48.878;9.632;2023-05-10T02:06:24;3.85;;;2.78;;
23745;SDS011;12053;48.878;9.632;2023-05-10T02:08:52;2.75;;;2.55;;
23745;SDS011;12053;48.878;9.632;2023-05-10T02:11:20;2.60;;;2.40;;
23745;SDS011;12053;48.878;9.632;2023-05-10T02:13:49;2.70;;;2.50;;
23745;SDS011;12053;48.878;9.632;2023-05-10T02:16:17;4.30;;;2.35;;
23745;SDS011;12053;48.878;9.632;2023-05-10T02:18:45;2.30;;;2.10;;
23745;SDS011;12053;48.878;9.632;2023-05-10T02:21:13;2.33;;;2.10;;
23745;SDS011;12053;48.878;9.632;2023-05-10T02:23:42;2.50;;;2.30;;
23745;SDS011;12053;48.878;9.632;2023-05-10T02:26:10;2.22;;;2.10;;
23745;SDS011;12053;48.878;9.632;2023-05-10T02:28:38;2.75;;;2.55;;
23745;SDS011;12053;48.878;9.632;2023-05-10T02:31:07;6.85;;;2.97;;
23745;SDS011;12053;48.878;9.632;2023-05-10T02:33:37;3.28;;;3.08;;
23745;SDS011;12053;48.878;9.632;2023-05-10T02:36:06;3.55;;;3.08;;
23745;SDS011;12053;48.878;9.632;2023-05-10T02:38:34;3.45;;;3.15;;
23745;SDS011;12053;48.878;9.632;2023-05-10T02:41:02;3.30;;;3.00;;
23745;SDS011;12053;48.878;9.632;2023-05-10T02:43:32;4.05;;;2.83;;
23745;SDS011;12053;48.878;9.632;2023-05-10T02:46:00;4.13;;;2.88;;
23745;SDS011;12053;48.878;9.632;2023-05-10T02:48:27;3.50;;;3.20;;
23745;SDS011;12053;48.878;9.632;2023-05-10T02:50:55;3.78;;;3.47;;
23745;SDS011;12053;48.878;9.632;2023-05-10T02:53:23;5.50;;;3.42;;
23745;SDS011;12053;48.878;9.632;2023-05-10T02:55:53;3.10;;;2.90;;
23745;SDS011;12053;48.878;9.632;2023-05-10T02:58:22;4.03;;;3.42;;
23745;SDS011;12053;48.878;9.632;2023-05-10T03:00:50;3.80;;;3.50;;
23745;SDS011;12053;48.878;9.632;2023-05-10T03:03:17;3.50;;;3.20;;
23745;SDS011;12053;48.878;9.632;2023-05-10T03:05:44;3.55;;;3.25;;
23745;SDS011;12053;48.878;9.632;2023-05-10T03:08:11;5.20;;;3.50;;
23745;SDS011;12053;48.878;9.632;2023-05-10T03:10:41;4.05;;;3.67;;
23745;SDS011;12053;48.878;9.632;2023-05-10T03:13:19;4.70;;;3.20;;
23745;SDS011;12053;48.878;9.632;2023-05-10T03:16:02;3.50;;;3.20;;
23745;SDS011;12053;48.878;9.632;2023-05-10T03:18:37;4.10;;;3.70;;
23745;SDS011;12053;48.878;9.632;2023-05-10T03:21:07;3.97;;;3.67;;
23745;SDS011;12053;48.878;9.632;2023-05-10T03:26:38;4.35;;;3.95;;
23745;SDS011;12053;48.878;9.632;2023-05-10T03:29:06;4.65;;;4.25;;
23745;SDS011;12053;48.878;9.632;2023-05-10T03:31:33;5.43;;;4.20;;
23745;SDS011;12053;48.878;9.632;2023-05-10T03:34:01;4.57;;;4.18;;
23745;SDS011;12053;48.878;9.632;2023-05-10T03:36:28;5.10;;;4.60;;
23745;SDS011;12053;48.878;9.632;2023-05-10T03:38:55;7.55;;;4.50;;
23745;SDS011;12053;48.878;9.632;2023-05-10T03:41:23;5.35;;;4.90;;
23745;SDS011;12053;48.878;9.632;2023-05-10T03:43:51;5.65;;;5.15;;
23745;SDS011;12053;48.878;9.632;2023-05-10T03:46:18;7.55;;;5.55;;
23745;SDS011;12053;48.878;9.632;2023-05-10T03:48:46;5.85;;;5.25;;
23745;SDS011;12053;48.878;9.632;2023-05-10T03:51:13;6.72;;;5.55;;
23745;SDS011;12053;48.878;9.632;2023-05-10T03:53:40;5.82;;;5.00;;
23745;SDS011;12053;48.878;9.632;2023-05-10T03:56:07;6.15;;;5.53;;
23745;SDS011;12053;48.878;9.632;2023-05-10T03:58:34;6.35;;;5.72;;
23745;SDS011;12053;48.878;9.632;2023-05-10T04:01:01;6.30;;;5.70;;
23745;SDS011;12053;48.878;9.632;2023-05-10T04:03:29;6.18;;;5.57;;
23745;SDS011;12053;48.878;9.632;2023-05-10T04:06:00;7.20;;;5.60;;
23745;SDS011;12053;48.878;9.632;2023-05-10T04:08:27;6.45;;;5.85;;
23745;SDS011;12053;48.878;9.632;2023-05-10T04:11:04;6.93;;;5.55;;
23745;SDS011;12053;48.878;9.632;2023-05-10T04:13:32;6.25;;;5.60;;
23745;SDS011;12053;48.878;9.632;2023-05-10T04:15:59;6.80;;;5.88;;
23745;SDS011;12053;48.878;9.632;2023-05-10T04:18:26;5.32;;;4.63;;
23745;SDS011;12053;48.878;9.632;2023-05-10T04:20:53;7.53;;;6.07;;
23745;SDS011;12053;48.878;9.632;2023-05-10T04:23:21;6.82;;;5.38;;
23745;SDS011;12053;48.878;9.632;2023-05-10T04:25:48;7.65;;;5.90;;
23745;SDS011;12053;48.878;9.632;2023-05-10T04:28:15;10.55;;;8.25;;
23745;SDS011;12053;48.878;9.632;2023-05-10T04:30:42;9.52;;;6.60;;
23745;SDS011;12053;48.878;9.632;2023-05-10T04:33:10;6.35;;;5.70;;
23745;SDS011;12053;48.878;9.632;2023-05-10T04:35:37;6.65;;;6.05;;
23745;SDS011;12053;48.878;9.632;2023-05-10T04:38:06;5.85;;;5.25;;
23745;SDS011;12053;48.878;9.632;2023-05-10T04:40:33;6.40;;;5.80;;
23745;SDS011;12053;48.878;9.632;2023-05-10T04:43:00;6.57;;;5.97;;
23745;SDS011;12053;48.878;9.632;2023-05-10T04:45:27;6.20;;;5.60;;
23745;SDS011;12053;48.878;9.632;2023-05-10T04:47:55;6.45;;;5.85;;
23745;SDS011;12053;48.878;9.632;2023-05-10T04:50:22;5.43;;;4.93;;
23745;SDS011;12053;48.878;9.632;2023-05-10T04:52:49;5.22;;;4.60;;
23745;SDS011;12053;48.878;9.632;2023-05-10T04:55:18;5.32;;;4.80;;
23745;SDS011;12053;48.878;9.632;2023-05-10T04:57:45;4.95;;;4.53;;
23745;SDS011;12053;48.878;9.632;2023-05-10T05:00:12;5.75;;;4.90;;
23745;SDS011;12053;48.878;9.632;2023-05-10T05:02:43;5.75;;;4.93;;
23745;SDS011;12053;48.878;9.632;2023-05-10T05:05:12;4.85;;;4.38;;
23745;SDS011;12053;48.878;9.632;2023-05-10T05:07:39;5.00;;;4.50;;
23745;SDS011;12053;48.878;9.632;2023-05-10T05:10:07;6.35;;;4.47;;
23745;SDS011;12053;48.878;9.632;2023-05-10T05:12:34;5.57;;;5.07;;
23745;SDS011;12053;48.878;9.632;2023-05-10T05:15:02;4.75;;;4.32;;
23745;SDS011;12053;48.878;9.632;2023-05-10T05:17:32;5.10;;;4.60;;
23745;SDS011;12053;48.878;9.632;2023-05-10T05:19:59;6.50;;;5.18;;
23745;SDS011;12053;48.878;9.632;2023-05-10T05:22:26;5.53;;;4.93;;
23745;SDS011;12053;48.878;9.632;2023-05-10T05:24:55;5.70;;;5.15;;
23745;SDS011;12053;48.878;9.632;2023-05-10T05:27:22;5.80;;;5.20;;
23745;SDS011;12053;48.878;9.632;2023-05-10T05:29:50;5.82;;;5.22;;
23745;SDS011;12053;48.878;9.632;2023-05-10T05:32:19;5.82;;;5.10;;
23745;SDS011;12053;48.878;9.632;2023-05-10T05:34:46;6.28;;;4.85;;
23745;SDS011;12053;48.878;9.632;2023-05-10T05:37:17;4.78;;;4.32;;
23745;SDS011;12053;48.878;9.632;2023-05-10T05:39:45;4.20;;;3.60;;
23745;SDS011;12053;48.878;9.632;2023-05-10T05:42:12;3.80;;;3.50;;
23745;SDS011;12053;48.878;9.632;2023-05-10T05:44:40;5.93;;;3.00;;
23745;SDS011;12053;48.878;9.632;2023-05-10T05:47:08;3.80;;;3.50;;
23745;SDS011;12053;48.878;9.632;2023-05-10T05:49:35;4.35;;;3.60;;
23745;SDS011;12053;48.878;9.632;2023-05-10T05:52:02;5.00;;;4.40;;
23745;SDS011;12053;48.878;9.632;2023-05-10T05:54:30;5.30;;;4.80;;
23745;SDS011;12053;48.878;9.632;2023-05-10T05:56:58;5.55;;;4.68;;
23745;SDS011;12053;48.878;9.632;2023-05-10T05:59:27;6.57;;;4.78;;
23745;SDS011;12053;48.878;9.632;2023-05-10T06:01:54;4.38;;;3.97;;
23745;SDS011;12053;48.878;9.632;2023-05-10T06:04:21;5.18;;;4.22;;
23745;SDS011;12053;48.878;9.632;2023-05-10T06:06:48;19.08;;;7.75;;
23745;SDS011;12053;48.878;9.632;2023-05-10T06:09:16;16.88;;;6.70;;
23745;SDS011;12053;48.878;9.632;2023-05-10T06:11:43;5.20;;;4.60;;
23745;SDS011;12053;48.878;9.632;2023-05-10T06:14:10;8.18;;;4.90;;
23745;SDS011;12053;48.878;9.632;2023-05-10T06:16:38;8.57;;;5.18;;
23745;SDS011;12053;48.878;9.632;2023-05-10T06:19:05;7.80;;;4.40;;
23745;SDS011;12053;48.878;9.632;2023-05-10T06:21:32;5.20;;;4.70;;
23745;SDS011;12053;48.878;9.632;2023-05-10T06:23:59;7.82;;;5.50;;
23745;SDS011;12053;48.878;9.632;2023-05-10T06:26:26;6.30;;;5.22;;
23745;SDS011;12053;48.878;9.632;2023-05-10T06:28:54;11.20;;;5.07;;
23745;SDS011;12053;48.878;9.632;2023-05-10T06:31:21;5.82;;;5.25;;
23745;SDS011;12053;48.878;9.632;2023-05-10T06:33:48;6.75;;;5.10;;
23745;SDS011;12053;48.878;9.632;2023-05-10T06:36:15;6.47;;;5.30;;
23745;SDS011;12053;48.878;9.632;2023-05-10T06:38:42;5.85;;;5.30;;
23745;SDS011;12053;48.878;9.632;2023-05-10T06:41:10;8.13;;;5.65;;
23745;SDS011;12053;48.878;9.632;2023-05-10T06:43:37;6.38;;;5.60;;
23745;SDS011;12053;48.878;9.632;2023-05-10T06:46:07;6.47;;;5.72;;
23745;SDS011;12053;48.878;9.632;2023-05-10T06:48:34;7.30;;;5.75;;
23745;SDS011;12053;48.878;9.632;2023-05-10T06:51:02;6.18;;;5.60;;
23745;SDS011;12053;48.878;9.632;2023-05-10T06:53:29;6.50;;;5.80;;
23745;SDS011;12053;48.878;9.632;2023-05-10T06:55:56;8.63;;;5.18;;
23745;SDS011;12053;48.878;9.632;2023-05-10T06:58:23;6.13;;;5.53;;
23745;SDS011;12053;48.878;9.632;2023-05-10T07:00:50;6.03;;;4.93;;
23745;SDS011;12053;48.878;9.632;2023-05-10T07:03:18;6.00;;;5.40;;
23745;SDS011;12053;48.878;9.632;2023-05-10T07:05:45;5.55;;;4.68;;
23745;SDS011;12053;48.878;9.632;2023-05-10T07:08:12;7.90;;;5.57;;
23745;SDS011;12053;48.878;9.632;2023-05-10T07:10:39;6.25;;;5.43;;
23745;SDS011;12053;48.878;9.632;2023-05-10T07:13:06;5.55;;;4.97;;
23745;SDS011;12053;48.878;9.632;2023-05-10T07:15:34;5.20;;;4.63;;
23745;SDS011;12053;48.878;9.632;2023-05-10T07:18:01;7.10;;;4.75;;
23745;SDS011;12053;48.878;9.632;2023-05-10T07:20:30;6.38;;;4.57;;
23745;SDS011;12053;48.878;9.632;2023-05-10T07:22:58;7.65;;;4.68;;
23745;SDS011;12053;48.878;9.632;2023-05-10T07:25:25;8.90;;;4.90;;
23745;SDS011;12053;48.878;9.632;2023-05-10T07:27:52;9.20;;;5.70;;
23745;SDS011;12053;48.878;9.632;2023-05-10T07:30:19;6.13;;;4.90;;
23745;SDS011;12053;48.878;9.632;2023-05-10T07:32:46;4.70;;;4.30;;
23745;SDS011;12053;48.878;9.632;2023-05-10T07:35:14;5.85;;;4.97;;
23745;SDS011;12053;48.878;9.632;2023-05-10T07:37:41;5.38;;;4.88;;
23745;SDS011;12053;48.878;9.632;2023-05-10T07:40:09;4.40;;;3.78;;
23745;SDS011;12053;48.878;9.632;2023-05-10T07:42:36;5.15;;;3.60;;
23745;SDS011;12053;48.878;9.632;2023-05-10T07:45:04;4.78;;;3.38;;
23745;SDS011;12053;48.878;9.632;2023-05-10T07:47:31;5.95;;;3.42;;
23745;SDS011;12053;48.878;9.632;2023-05-10T07:49:59;4.05;;;3.10;;
23745;SDS011;12053;48.878;9.632;2023-05-10T07:52:26;4.32;;;3.08;;
23745;SDS011;12053;48.878;9.632;2023-05-10T07:54:53;3.50;;;3.20;;
23745;SDS011;12053;48.878;9.632;2023-05-10T07:57:22;3.00;;;2.70;;
23745;SDS011;12053;48.878;9.632;2023-05-10T07:59:50;4.70;;;2.67;;
23745;SDS011;12053;48.878;9.632;2023-05-10T08:02:17;4.10;;;2.45;;
23745;SDS011;12053;48.878;9.632;2023-05-10T08:04:44;7.25;;;2.70;;
23745;SDS011;12053;48.878;9.632;2023-05-10T08:07:12;5.15;;;2.42;;
23745;SDS011;12053;48.878;9.632;2023-05-10T08:09:39;2.70;;;2.42;;
23745;SDS011;12053;48.878;9.632;2023-05-10T08:12:06;6.13;;;2.70;;
23745;SDS011;12053;48.878;9.632;2023-05-10T08:14:33;4.32;;;2.70;;
23745;SDS011;12053;48.878;9.632;2023-05-10T08:17:03;5.50;;;2.67;;
23745;SDS011;12053;48.878;9.632;2023-05-10T08:19:30;4.15;;;2.40;;
23745;SDS011;12053;48.878;9.632;2023-05-10T08:21:57;4.43;;;2.30;;
23745;SDS011;12053;48.878;9.632;2023-05-10T08:24:24;4.70;;;2.70;;
23745;SDS011;12053;48.878;9.632;2023-05-10T08:26:52;3.03;;;2.03;;
23745;SDS011;12053;48.878;9.632;2023-05-10T08:29:19;2.35;;;2.15;;
23745;SDS011;12053;48.878;9.632;2023-05-10T08:31:46;3.03;;;1.73;;
23745;SDS011;12053;48.878;9.632;2023-05-10T08:34:13;3.40;;;2.22;;
23745;SDS011;12053;48.878;9.632;2023-05-10T08:36:41;4.72;;;1.88;;
23745;SDS011;12053;48.878;9.632;2023-05-10T08:39:08;3.47;;;2.42;;
23745;SDS011;12053;48.878;9.632;2023-05-10T08:41:52;2.90;;;2.50;;
23745;SDS011;12053;48.878;9.632;2023-05-10T08:44:20;4.07;;;2.90;;
23745;SDS011;12053;48.878;9.632;2023-05-10T08:46:47;3.15;;;2.85;;
23745;SDS011;12053;48.878;9.632;2023-05-10T08:49:17;4.63;;;2.85;;
23745;SDS011;12053;48.878;9.632;2023-05-10T08:51:47;2.00;;;1.80;;
23745;SDS011;12053;48.878;9.632;2023-05-10T08:54:15;2.25;;;1.60;;
23745;SDS011;12053;48.878;9.632;2023-05-10T08:56:42;2.35;;;1.98;;
23745;SDS011;12053;48.878;9.632;2023-05-10T08:59:10;2.33;;;1.70;;
23745;SDS011;12053;48.878;9.632;2023-05-10T09:01:39;1.83;;;1.27;;
23745;SDS011;12053;48.878;9.632;2023-05-10T09:04:07;4.22;;;1.13;;
23745;SDS011;12053;48.878;9.632;2023-05-10T09:06:34;1.30;;;1.20;;
23745;SDS011;12053;48.878;9.632;2023-05-10T09:09:02;1.73;;;1.42;;
23745;SDS011;12053;48.878;9.632;2023-05-10T09:11:29;1.48;;;1.38;;
23745;SDS011;12053;48.878;9.632;2023-05-10T09:13:57;1.60;;;1.30;;
23745;SDS011;12053;48.878;9.632;2023-05-10T09:16:25;3.05;;;1.40;;
23745;SDS011;12053;48.878;9.632;2023-05-10T09:18:52;4.50;;;1.20;;
23745;SDS011;12053;48.878;9.632;2023-05-10T09:21:19;2.30;;;1.65;;
23745;SDS011;12053;48.878;9.632;2023-05-10T09:23:47;6.50;;;1.40;;
23745;SDS011;12053;48.878;9.632;2023-05-10T09:26:16;2.65;;;1.30;;
23745;SDS011;12053;48.878;9.632;2023-05-10T09:28:53;3.70;;;1.40;;
23745;SDS011;12053;48.878;9.632;2023-05-10T09:31:21;6.60;;;1.42;;
23745;SDS011;12053;48.878;9.632;2023-05-10T09:33:50;1.50;;;0.95;;
23745;SDS011;12053;48.878;9.632;2023-05-10T09:36:17;1.27;;;1.17;;
23745;SDS011;12053;48.878;9.632;2023-05-10T09:38:48;1.70;;;1.10;;
23745;SDS011;12053;48.878;9.632;2023-05-10T09:41:16;0.90;;;0.90;;
23745;SDS011;12053;48.878;9.632;2023-05-10T09:43:44;1.35;;;0.95;;
23745;SDS011;12053;48.878;9.632;2023-05-10T09:46:11;1.17;;;0.77;;
23745;SDS011;12053;48.878;9.632;2023-05-10T09:48:40;3.22;;;0.85;;
23745;SDS011;12053;48.878;9.632;2023-05-10T09:51:08;2.17;;;0.80;;
23745;SDS011;12053;48.878;9.632;2023-05-10T09:53:35;1.58;;;0.90;;
23745;SDS011;12053;48.878;9.632;2023-05-10T09:56:03;1.40;;;0.60;;
23745;SDS011;12053;48.878;9.632;2023-05-10T09:58:30;0.77;;;0.75;;
23745;SDS011;12053;48.878;9.632;2023-05-10T10:00:58;2.03;;;1.00;;
23745;SDS011;12053;48.878;9.632;2023-05-10T10:03:25;3.17;;;0.65;;
23745;SDS011;12053;48.878;9.632;2023-05-10T10:05:55;2.42;;;0.80;;
23745;SDS011;12053;48.878;9.632;2023-05-10T10:08:22;3.17;;;0.88;;
23745;SDS011;12053;48.878;9.632;2023-05-10T10:10:50;1.88;;;0.80;;
23745;SDS011;12053;48.878;9.632;2023-05-10T10:13:17;1.90;;;0.75;;
23745;SDS011;12053;48.878;9.632;2023-05-10T10:15:44;3.03;;;1.25;;
23745;SDS011;12053;48.878;9.632;2023-05-10T10:18:13;1.60;;;0.70;;
23745;SDS011;12053;48.878;9.632;2023-05-10T10:20:41;1.75;;;0.55;;
23745;SDS011;12053;48.878;9.632;2023-05-10T10:23:09;1.30;;;0.60;;
23745;SDS011;12053;48.878;9.632;2023-05-10T10:25:36;0.70;;;0.70;;
23745;SDS011;12053;48.878;9.632;2023-05-10T10:28:09;0.93;;;0.60;;
23745;SDS011;12053;48.878;9.632;2023-05-10T10:30:40;3.05;;;0.70;;
23745;SDS011;12053;48.878;9.632;2023-05-10T10:35:55;2.67;;;1.00;;
23745;SDS011;12053;48.878;9.632;2023-05-10T10:38:24;1.95;;;0.70;;
23745;SDS011;12053;48.878;9.632;2023-05-10T10:41:09;2.55;;;0.80;;
23745;SDS011;12053;48.878;9.632;2023-05-10T10:43:37;0.73;;;0.70;;
23745;SDS011;12053;48.878;9.632;2023-05-10T10:46:14;0.75;;;0.65;;
23745;SDS011;12053;48.878;9.632;2023-05-10T10:48:47;0.70;;;0.60;;
23745;SDS011;12053;48.878;9.632;2023-05-10T10:51:15;1.30;;;0.60;;
23745;SDS011;12053;48.878;9.632;2023-05-10T10:53:43;0.70;;;0.70;;
23745;SDS011;12053;48.878;9.632;2023-05-10T10:56:11;1.23;;;1.13;;
23745;SDS011;12053;48.878;9.632;2023-05-10T10:58:39;2.28;;;1.05;;
23745;SDS011;12053;48.878;9.632;2023-05-10T11:03:37;1.02;;;1.02;;
23745;SDS011;12053;48.878;9.632;2023-05-10T11:06:04;3.22;;;0.80;;
23745;SDS011;12053;48.878;9.632;2023-05-10T11:08:32;2.67;;;0.90;;
23745;SDS011;12053;48.878;9.632;2023-05-10T11:11:04;1.02;;;0.93;;
23745;SDS011;12053;48.878;9.632;2023-05-10T11:13:42;3.13;;;1.10;;
23745;SDS011;12053;48.878;9.632;2023-05-10T11:18:37;2.05;;;0.85;;
23745;SDS011;12053;48.878;9.632;2023-05-10T11:21:04;1.05;;;0.90;;
23745;SDS011;12053;48.878;9.632;2023-05-10T11:23:33;0.80;;;0.80;;
23745;SDS011;12053;48.878;9.632;2023-05-10T11:26:14;4.33;;;0.80;;
23745;SDS011;12053;48.878;9.632;2023-05-10T11:28:41;0.85;;;0.80;;
23745;SDS011;12053;48.878;9.632;2023-05-10T11:31:09;1.10;;;0.70;;
23745;SDS011;12053;48.878;9.632;2023-05-10T11:34:10;1.23;;;0.77;;
23745;SDS011;12053;48.878;9.632;2023-05-10T11:36:34;2.00;;;0.80;;
23745;SDS011;12053;48.878;9.632;2023-05-10T11:39:02;3.25;;;0.82;;
23745;SDS011;12053;48.878;9.632;2023-05-10T11:41:30;1.20;;;0.70;;
23745;SDS011;12053;48.878;9.632;2023-05-10T11:43:58;1.85;;;0.70;;
23745;SDS011;12053;48.878;9.632;2023-05-10T11:46:26;1.05;;;0.65;;
23745;SDS011;12053;48.878;9.632;2023-05-10T11:48:57;1.67;;;0.90;;
23745;SDS011;12053;48.878;9.632;2023-05-10T11:51:27;1.90;;;0.90;;
23745;SDS011;12053;48.878;9.632;2023-05-10T11:53:55;1.85;;;1.05;;
23745;SDS011;12053;48.878;9.632;2023-05-10T11:56:23;0.90;;;0.90;;
23745;SDS011;12053;48.878;9.632;2023-05-10T11:58:53;2.10;;;0.90;;
23745;SDS011;12053;48.878;9.632;2023-05-10T12:01:22;0.85;;;0.85;;
23745;SDS011;12053;48.878;9.632;2023-05-10T12:03:50;3.00;;;0.80;;
23745;SDS011;12053;48.878;9.632;2023-05-10T12:06:21;4.00;;;0.93;;
23745;SDS011;12053;48.878;9.632;2023-05-10T12:08:48;1.55;;;0.90;;
23745;SDS011;12053;48.878;9.632;2023-05-10T12:11:20;1.10;;;0.77;;
23745;SDS011;12053;48.878;9.632;2023-05-10T12:13:47;1.10;;;1.00;;
23745;SDS011;12053;48.878;9.632;2023-05-10T12:18:53;3.65;;;0.88;;
23745;SDS011;12053;48.878;9.632;2023-05-10T12:21:21;1.10;;;0.70;;
23745;SDS011;12053;48.878;9.632;2023-05-10T12:23:50;0.75;;;0.75;;
23745;SDS011;12053;48.878;9.632;2023-05-10T12:26:17;3.25;;;0.98;;
23745;SDS011;12053;48.878;9.632;2023-05-10T12:28:44;3.78;;;0.82;;
23745;SDS011;12053;48.878;9.632;2023-05-10T12:31:12;1.92;;;0.85;;
23745;SDS011;12053;48.878;9.632;2023-05-10T12:33:39;1.38;;;0.70;;
23745;SDS011;12053;48.878;9.632;2023-05-10T12:36:11;2.38;;;0.85;;
23745;SDS011;12053;48.878;9.632;2023-05-10T12:38:39;2.60;;;1.00;;
23745;SDS011;12053;48.878;9.632;2023-05-10T12:41:10;2.15;;;1.00;;
23745;SDS011;12053;48.878;9.632;2023-05-10T12:43:38;3.22;;;0.98;;
23745;SDS011;12053;48.878;9.632;2023-05-10T12:48:34;3.97;;;1.30;;
23745;SDS011;12053;48.878;9.632;2023-05-10T12:51:01;4.95;;;1.00;;
23745;SDS011;12053;48.878;9.632;2023-05-10T12:53:29;1.20;;;0.90;;
23745;SDS011;12053;48.878;9.632;2023-05-10T12:55:56;2.05;;;1.08;;
23745;SDS011;12053;48.878;9.632;2023-05-10T12:58:23;3.85;;;1.30;;
23745;SDS011;12053;48.878;9.632;2023-05-10T13:01:00;2.20;;;1.17;;
23745;SDS011;12053;48.878;9.632;2023-05-10T13:03:28;2.80;;;1.10;;
23745;SDS011;12053;48.878;9.632;2023-05-10T13:05:55;3.53;;;1.20;;
23745;SDS011;12053;48.878;9.632;2023-05-10T13:08:23;2.80;;;1.10;;
23745;SDS011;12053;48.878;9.632;2023-05-10T13:10:50;1.30;;;1.10;;
23745;SDS011;12053;48.878;9.632;2023-05-10T13:13:17;2.83;;;1.13;;
23745;SDS011;12053;48.878;9.632;2023-05-10T13:15:44;4.43;;;1.40;;
23745;SDS011;12053;48.878;9.632;2023-05-10T13:18:11;1.42;;;1.17;;
23745;SDS011;12053;48.878;9.632;2023-05-10T13:20:39;7.10;;;1.60;;
23745;SDS011;12053;48.878;9.632;2023-05-10T13:23:06;3.30;;;1.17;;
23745;SDS011;12053;48.878;9.632;2023-05-10T13:25:33;2.60;;;1.45;;
23745;SDS011;12053;48.878;9.632;2023-05-10T13:28:00;1.80;;;1.17;;
23745;SDS011;12053;48.878;9.632;2023-05-10T13:30:28;2.40;;;1.30;;
23745;SDS011;12053;48.878;9.632;2023-05-10T13:32:55;3.65;;;1.15;;
23745;SDS011;12053;48.878;9.632;2023-05-10T13:35:22;2.20;;;0.95;;
23745;SDS011;12053;48.878;9.632;2023-05-10T13:37:49;1.77;;;1.08;;
23745;SDS011;12053;48.878;9.632;2023-05-10T13:40:17;2.70;;;1.00;;
23745;SDS011;12053;48.878;9.632;2023-05-10T13:42:44;1.95;;;1.00;;
23745;SDS011;12053;48.878;9.632;2023-05-10T13:45:12;4.63;;;1.05;;
23745;SDS011;12053;48.878;9.632;2023-05-10T13:47:39;1.25;;;0.80;;
23745;SDS011;12053;48.878;9.632;2023-05-10T13:50:07;1.35;;;0.95;;
23745;SDS011;12053;48.878;9.632;2023-05-10T13:52:34;5.53;;;1.35;;
23745;SDS011;12053;48.878;9.632;2023-05-10T13:55:01;1.83;;;1.20;;
23745;SDS011;12053;48.878;9.632;2023-05-10T13:57:28;3.28;;;0.90;;
23745;SDS011;12053;48.878;9.632;2023-05-10T13:59:56;2.70;;;1.00;;
23745;SDS011;12053;48.878;9.632;2023-05-10T14:02:23;1.27;;;1.10;;
23745;SDS011;12053;48.878;9.632;2023-05-10T14:04:51;1.55;;;0.90;;
23745;SDS011;12053;48.878;9.632;2023-05-10T14:07:19;1.60;;;0.85;;
23745;SDS011;12053;48.878;9.632;2023-05-10T14:09:46;2.17;;;1.42;;
23745;SDS011;12053;48.878;9.632;2023-05-10T14:12:13;1.02;;;0.70;;
23745;SDS011;12053;48.878;9.632;2023-05-10T14:14:40;2.83;;;0.85;;
23745;SDS011;12053;48.878;9.632;2023-05-10T14:17:08;4.18;;;0.90;;
23745;SDS011;12053;48.878;9.632;2023-05-10T14:19:37;1.35;;;0.80;;
23745;SDS011;12053;48.878;9.632;2023-05-10T14:22:05;2.42;;;1.20;;
23745;SDS011;12053;48.878;9.632;2023-05-10T14:24:32;3.33;;;0.93;;
23745;SDS011;12053;48.878;9.632;2023-05-10T14:26:59;3.10;;;1.05;;
23745;SDS011;12053;48.878;9.632;2023-05-10T14:29:27;4.03;;;0.88;;
23745;SDS011;12053;48.878;9.632;2023-05-10T14:31:54;2.35;;;0.98;;
23745;SDS011;12053;48.878;9.632;2023-05-10T14:34:21;3.38;;;0.93;;
23745;SDS011;12053;48.878;9.632;2023-05-10T14:36:48;3.75;;;0.93;;
23745;SDS011;12053;48.878;9.632;2023-05-10T14:39:16;1.10;;;0.80;;
23745;SDS011;12053;48.878;9.632;2023-05-10T14:41:44;3.03;;;1.02;;
23745;SDS011;12053;48.878;9.632;2023-05-10T14:44:11;7.72;;;1.15;;
23745;SDS011;12053;48.878;9.632;2023-05-10T14:46:39;3.30;;;1.02;;
23745;SDS011;12053;48.878;9.632;2023-05-10T14:49:06;2.08;;;1.20;;
23745;SDS011;12053;48.878;9.632;2023-05-10T14:51:33;1.88;;;1.60;;
23745;SDS011;12053;48.878;9.632;2023-05-10T14:54:02;3.25;;;1.30;;
23745;SDS011;12053;48.878;9.632;2023-05-10T14:56:30;2.80;;;1.05;;
23745;SDS011;12053;48.878;9.632;2023-05-10T14:58:57;1.10;;;0.80;;
23745;SDS011;12053;48.878;9.632;2023-05-10T15:01:25;1.38;;;0.80;;
23745;SDS011;12053;48.878;9.632;2023-05-10T15:03:53;4.57;;;1.17;;
23745;SDS011;12053;48.878;9.632;2023-05-10T15:06:22;2.88;;;0.90;;
23745;SDS011;12053;48.878;9.632;2023-05-10T15:08:51;5.15;;;1.08;;
23745;SDS011;12053;48.878;9.632;2023-05-10T15:11:18;1.40;;;0.90;;
23745;SDS011;12053;48.878;9.632;2023-05-10T15:13:46;5.32;;;1.15;;
23745;SDS011;12053;48.878;9.632;2023-05-10T15:16:13;1.25;;;1.05;;
23745;SDS011;12053;48.878;9.632;2023-05-10T15:18:41;2.63;;;0.85;;
23745;SDS011;12053;48.878;9.632;2023-05-10T15:21:09;5.25;;;0.98;;
23745;SDS011;12053;48.878;9.632;2023-05-10T15:23:36;1.30;;;1.00;;
23745;SDS011;12053;48.878;9.632;2023-05-10T15:26:03;1.67;;;0.75;;